sensor_id;sensor_type;location;lat;lon;timestamp;P1;durP1;ratioP1;P2;durP2;ratioP2
7683;SDS011;3884;48.616;12.872;2023-07-16T00:02:11;6.70;;;4.03;;
7683;SDS011;3884;48.616;12.872;2023-07-16T00:04:39;6.57;;;3.57;;
7683;SDS011;3884;48.616;12.872;2023-07-16T00:07:06;4.27;;;3.87;;
7683;SDS011;3884;48.616;12.872;2023-07-16T00:09:35;8.77;;;3.90;;
7683;SDS011;3884;48.616;12.872;2023-07-16T00:12:02;6.55;;;4.00;;
7683;SDS011;3884;48.616;12.872;2023-07-16T00:14:29;9.10;;;4.07;;
7683;SDS011;3884;48.616;12.872;2023-07-16T00:16:57;7.20;;;4.40;;
7683;SDS011;3884;48.616;12.872;2023-07-16T00:19:24;6.37;;;4.17;;
7683;SDS011;3884;48.616;12.872;2023-07-16T00:21:52;3.97;;;3.47;;
7683;SDS011;3884;48.616;12.872;2023-07-16T00:24:19;6.27;;;3.93;;
7683;SDS011;3884;48.616;12.872;2023-07-16T00:26:46;4.03;;;3.63;;
7683;SDS011;3884;48.616;12.872;2023-07-16T00:29:12;10.57;;;3.87;;
7683;SDS011;3884;48.616;12.872;2023-07-16T00:31:39;5.20;;;3.87;;
7683;SDS011;3884;48.616;12.872;2023-07-16T00:34:06;4.60;;;3.90;;
7683;SDS011;3884;48.616;12.872;2023-07-16T00:36:33;5.03;;;4.10;;
7683;SDS011;3884;48.616;12.872;2023-07-16T00:39:02;6.93;;;4.13;;
7683;SDS011;3884;48.616;12.872;2023-07-16T00:41:28;4.33;;;3.93;;
7683;SDS011;3884;48.616;12.872;2023-07-16T00:43:56;5.77;;;4.23;;
7683;SDS011;3884;48.616;12.872;2023-07-16T00:46:23;7.30;;;4.10;;
7683;SDS011;3884;48.616;12.872;2023-07-16T00:48:50;5.83;;;4.20;;
7683;SDS011;3884;48.616;12.872;2023-07-16T00:51:18;5.40;;;4.53;;
7683;SDS011;3884;48.616;12.872;2023-07-16T00:53:45;9.63;;;4.17;;
7683;SDS011;3884;48.616;12.872;2023-07-16T00:56:15;5.87;;;4.07;;
7683;SDS011;3884;48.616;12.872;2023-07-16T00:58:43;10.67;;;5.00;;
7683;SDS011;3884;48.616;12.872;2023-07-16T01:01:10;5.33;;;3.93;;
7683;SDS011;3884;48.616;12.872;2023-07-16T01:03:37;5.03;;;3.57;;
7683;SDS011;3884;48.616;12.872;2023-07-16T01:06:07;5.70;;;4.50;;
7683;SDS011;3884;48.616;12.872;2023-07-16T01:08:38;5.03;;;3.90;;
7683;SDS011;3884;48.616;12.872;2023-07-16T01:11:09;5.83;;;3.77;;
7683;SDS011;3884;48.616;12.872;2023-07-16T01:13:38;4.73;;;3.90;;
7683;SDS011;3884;48.616;12.872;2023-07-16T01:16:06;8.03;;;3.90;;
7683;SDS011;3884;48.616;12.872;2023-07-16T01:18:43;7.93;;;4.00;;
7683;SDS011;3884;48.616;12.872;2023-07-16T01:21:10;7.47;;;3.70;;
7683;SDS011;3884;48.616;12.872;2023-07-16T01:23:47;6.90;;;3.90;;
7683;SDS011;3884;48.616;12.872;2023-07-16T01:26:32;5.60;;;3.93;;
7683;SDS011;3884;48.616;12.872;2023-07-16T01:29:13;4.80;;;3.53;;
7683;SDS011;3884;48.616;12.872;2023-07-16T01:31:57;4.93;;;3.80;;
7683;SDS011;3884;48.616;12.872;2023-07-16T01:34:28;5.27;;;3.50;;
7683;SDS011;3884;48.616;12.872;2023-07-16T01:36:58;4.20;;;3.53;;
7683;SDS011;3884;48.616;12.872;2023-07-16T01:39:26;4.43;;;2.97;;
7683;SDS011;3884;48.616;12.872;2023-07-16T01:41:53;5.57;;;3.63;;
7683;SDS011;3884;48.616;12.872;2023-07-16T01:44:22;4.50;;;3.40;;
7683;SDS011;3884;48.616;12.872;2023-07-16T01:46:53;5.73;;;3.83;;
7683;SDS011;3884;48.616;12.872;2023-07-16T01:49:30;4.33;;;3.53;;
7683;SDS011;3884;48.616;12.872;2023-07-16T01:51:57;3.70;;;3.40;;
7683;SDS011;3884;48.616;12.872;2023-07-16T01:54:25;3.87;;;3.53;;
7683;SDS011;3884;48.616;12.872;2023-07-16T01:56:52;5.50;;;3.67;;
7683;SDS011;3884;48.616;12.872;2023-07-16T01:59:19;4.10;;;3.70;;
7683;SDS011;3884;48.616;12.872;2023-07-16T02:01:47;5.20;;;3.37;;
7683;SDS011;3884;48.616;12.872;2023-07-16T02:04:14;4.73;;;3.80;;
7683;SDS011;3884;48.616;12.872;2023-07-16T02:06:41;4.50;;;3.60;;
7683;SDS011;3884;48.616;12.872;2023-07-16T02:09:08;4.93;;;4.03;;
7683;SDS011;3884;48.616;12.872;2023-07-16T02:11:35;4.27;;;3.80;;
7683;SDS011;3884;48.616;12.872;2023-07-16T02:14:02;4.27;;;3.77;;
7683;SDS011;3884;48.616;12.872;2023-07-16T02:16:29;5.28;;;4.00;;
7683;SDS011;3884;48.616;12.872;2023-07-16T02:18:57;4.13;;;3.70;;
7683;SDS011;3884;48.616;12.872;2023-07-16T02:21:24;4.60;;;3.93;;
7683;SDS011;3884;48.616;12.872;2023-07-16T02:23:52;6.50;;;4.33;;
7683;SDS011;3884;48.616;12.872;2023-07-16T02:26:19;8.13;;;5.07;;
7683;SDS011;3884;48.616;12.872;2023-07-16T02:28:46;6.33;;;4.40;;
7683;SDS011;3884;48.616;12.872;2023-07-16T02:31:13;6.17;;;4.03;;
7683;SDS011;3884;48.616;12.872;2023-07-16T02:33:40;5.23;;;4.20;;
7683;SDS011;3884;48.616;12.872;2023-07-16T02:36:08;8.53;;;4.67;;
7683;SDS011;3884;48.616;12.872;2023-07-16T02:38:35;5.80;;;5.10;;
7683;SDS011;3884;48.616;12.872;2023-07-16T02:41:02;5.07;;;4.53;;
7683;SDS011;3884;48.616;12.872;2023-07-16T02:43:31;5.67;;;4.60;;
7683;SDS011;3884;48.616;12.872;2023-07-16T02:45:58;6.77;;;5.00;;
7683;SDS011;3884;48.616;12.872;2023-07-16T02:48:28;6.40;;;4.90;;
7683;SDS011;3884;48.616;12.872;2023-07-16T02:50:55;5.50;;;5.00;;
7683;SDS011;3884;48.616;12.872;2023-07-16T02:53:23;5.40;;;4.90;;
7683;SDS011;3884;48.616;12.872;2023-07-16T02:55:50;5.50;;;5.00;;
7683;SDS011;3884;48.616;12.872;2023-07-16T02:58:17;6.07;;;5.20;;
7683;SDS011;3884;48.616;12.872;2023-07-16T03:00:44;7.47;;;5.10;;
7683;SDS011;3884;48.616;12.872;2023-07-16T03:03:11;5.10;;;4.60;;
7683;SDS011;3884;48.616;12.872;2023-07-16T03:05:38;5.03;;;4.20;;
7683;SDS011;3884;48.616;12.872;2023-07-16T03:08:05;5.60;;;4.60;;
7683;SDS011;3884;48.616;12.872;2023-07-16T03:10:34;5.37;;;4.30;;
7683;SDS011;3884;48.616;12.872;2023-07-16T03:13:00;5.70;;;4.57;;
7683;SDS011;3884;48.616;12.872;2023-07-16T03:15:27;5.20;;;4.57;;
7683;SDS011;3884;48.616;12.872;2023-07-16T03:17:54;4.87;;;4.37;;
7683;SDS011;3884;48.616;12.872;2023-07-16T03:20:21;5.93;;;4.37;;
7683;SDS011;3884;48.616;12.872;2023-07-16T03:22:48;6.10;;;3.93;;
7683;SDS011;3884;48.616;12.872;2023-07-16T03:25:15;5.00;;;4.60;;
7683;SDS011;3884;48.616;12.872;2023-07-16T03:27:43;5.13;;;4.63;;
7683;SDS011;3884;48.616;12.872;2023-07-16T03:30:10;6.20;;;4.33;;
7683;SDS011;3884;48.616;12.872;2023-07-16T03:32:37;4.57;;;4.17;;
7683;SDS011;3884;48.616;12.872;2023-07-16T03:35:05;4.90;;;4.40;;
7683;SDS011;3884;48.616;12.872;2023-07-16T03:37:33;5.17;;;4.07;;
7683;SDS011;3884;48.616;12.872;2023-07-16T03:40:11;7.80;;;4.33;;
7683;SDS011;3884;48.616;12.872;2023-07-16T03:42:41;4.97;;;4.47;;
7683;SDS011;3884;48.616;12.872;2023-07-16T03:45:10;6.40;;;4.47;;
7683;SDS011;3884;48.616;12.872;2023-07-16T03:47:37;5.23;;;4.37;;
7683;SDS011;3884;48.616;12.872;2023-07-16T03:50:04;5.07;;;4.57;;
7683;SDS011;3884;48.616;12.872;2023-07-16T03:52:32;4.90;;;4.40;;
7683;SDS011;3884;48.616;12.872;2023-07-16T03:54:59;6.27;;;4.27;;
7683;SDS011;3884;48.616;12.872;2023-07-16T03:57:27;4.60;;;4.13;;
7683;SDS011;3884;48.616;12.872;2023-07-16T03:59:55;6.93;;;4.53;;
7683;SDS011;3884;48.616;12.872;2023-07-16T04:02:24;6.00;;;4.63;;
7683;SDS011;3884;48.616;12.872;2023-07-16T04:04:52;5.13;;;4.63;;
7683;SDS011;3884;48.616;12.872;2023-07-16T04:07:19;8.30;;;4.93;;
7683;SDS011;3884;48.616;12.872;2023-07-16T04:09:46;6.40;;;5.00;;
7683;SDS011;3884;48.616;12.872;2023-07-16T04:12:13;5.57;;;5.03;;
7683;SDS011;3884;48.616;12.872;2023-07-16T04:14:40;6.23;;;4.70;;
7683;SDS011;3884;48.616;12.872;2023-07-16T04:17:07;4.97;;;4.47;;
7683;SDS011;3884;48.616;12.872;2023-07-16T04:19:35;6.20;;;4.37;;
7683;SDS011;3884;48.616;12.872;2023-07-16T04:22:02;6.13;;;4.40;;
7683;SDS011;3884;48.616;12.872;2023-07-16T04:24:30;5.20;;;4.43;;
7683;SDS011;3884;48.616;12.872;2023-07-16T04:26:58;5.93;;;4.80;;
7683;SDS011;3884;48.616;12.872;2023-07-16T04:29:25;5.43;;;4.07;;
7683;SDS011;3884;48.616;12.872;2023-07-16T04:31:52;5.23;;;4.00;;
7683;SDS011;3884;48.616;12.872;2023-07-16T04:34:19;4.50;;;4.10;;
7683;SDS011;3884;48.616;12.872;2023-07-16T04:36:47;5.90;;;4.23;;
7683;SDS011;3884;48.616;12.872;2023-07-16T04:39:16;4.20;;;3.80;;
7683;SDS011;3884;48.616;12.872;2023-07-16T04:41:42;5.37;;;4.13;;
7683;SDS011;3884;48.616;12.872;2023-07-16T04:44:09;8.10;;;4.20;;
7683;SDS011;3884;48.616;12.872;2023-07-16T04:46:36;7.03;;;4.17;;
7683;SDS011;3884;48.616;12.872;2023-07-16T04:49:04;5.13;;;4.63;;
7683;SDS011;3884;48.616;12.872;2023-07-16T04:51:32;4.57;;;4.07;;
7683;SDS011;3884;48.616;12.872;2023-07-16T04:54:00;4.63;;;4.23;;
7683;SDS011;3884;48.616;12.872;2023-07-16T04:56:27;4.70;;;4.00;;
7683;SDS011;3884;48.616;12.872;2023-07-16T04:58:54;7.50;;;4.00;;
7683;SDS011;3884;48.616;12.872;2023-07-16T05:01:22;6.03;;;4.10;;
7683;SDS011;3884;48.616;12.872;2023-07-16T05:03:50;5.80;;;4.10;;
7683;SDS011;3884;48.616;12.872;2023-07-16T05:06:17;5.07;;;4.10;;
7683;SDS011;3884;48.616;12.872;2023-07-16T05:08:44;5.03;;;3.87;;
7683;SDS011;3884;48.616;12.872;2023-07-16T05:11:12;5.63;;;3.87;;
7683;SDS011;3884;48.616;12.872;2023-07-16T05:13:39;4.60;;;3.60;;
7683;SDS011;3884;48.616;12.872;2023-07-16T05:16:06;4.40;;;4.00;;
7683;SDS011;3884;48.616;12.872;2023-07-16T05:18:33;6.10;;;4.10;;
7683;SDS011;3884;48.616;12.872;2023-07-16T05:21:00;4.80;;;3.97;;
7683;SDS011;3884;48.616;12.872;2023-07-16T05:23:27;4.77;;;3.93;;
7683;SDS011;3884;48.616;12.872;2023-07-16T05:25:54;5.17;;;3.90;;
7683;SDS011;3884;48.616;12.872;2023-07-16T05:28:22;4.07;;;3.60;;
7683;SDS011;3884;48.616;12.872;2023-07-16T05:30:56;4.33;;;3.93;;
7683;SDS011;3884;48.616;12.872;2023-07-16T05:33:24;5.33;;;4.00;;
7683;SDS011;3884;48.616;12.872;2023-07-16T05:35:50;5.23;;;3.80;;
7683;SDS011;3884;48.616;12.872;2023-07-16T05:38:17;4.57;;;3.63;;
7683;SDS011;3884;48.616;12.872;2023-07-16T05:40:44;5.03;;;4.13;;
7683;SDS011;3884;48.616;12.872;2023-07-16T05:43:11;5.20;;;4.27;;
7683;SDS011;3884;48.616;12.872;2023-07-16T05:45:39;4.47;;;3.53;;
7683;SDS011;3884;48.616;12.872;2023-07-16T05:48:06;4.00;;;3.60;;
7683;SDS011;3884;48.616;12.872;2023-07-16T05:50:33;4.40;;;4.00;;
7683;SDS011;3884;48.616;12.872;2023-07-16T05:53:00;4.20;;;3.80;;
7683;SDS011;3884;48.616;12.872;2023-07-16T05:55:27;5.70;;;3.67;;
7683;SDS011;3884;48.616;12.872;2023-07-16T05:57:54;4.50;;;4.10;;
7683;SDS011;3884;48.616;12.872;2023-07-16T06:00:21;4.33;;;3.40;;
7683;SDS011;3884;48.616;12.872;2023-07-16T06:02:50;4.63;;;3.67;;
7683;SDS011;3884;48.616;12.872;2023-07-16T06:05:17;5.43;;;4.10;;
7683;SDS011;3884;48.616;12.872;2023-07-16T06:07:44;4.33;;;3.73;;
7683;SDS011;3884;48.616;12.872;2023-07-16T06:10:12;5.57;;;3.70;;
7683;SDS011;3884;48.616;12.872;2023-07-16T06:12:39;4.57;;;4.10;;
7683;SDS011;3884;48.616;12.872;2023-07-16T06:15:07;3.87;;;3.43;;
7683;SDS011;3884;48.616;12.872;2023-07-16T06:17:34;4.10;;;3.70;;
7683;SDS011;3884;48.616;12.872;2023-07-16T06:20:03;4.07;;;3.70;;
7683;SDS011;3884;48.616;12.872;2023-07-16T06:22:32;5.73;;;4.27;;
7683;SDS011;3884;48.616;12.872;2023-07-16T06:24:59;4.17;;;3.33;;
7683;SDS011;3884;48.616;12.872;2023-07-16T06:27:26;4.10;;;3.70;;
7683;SDS011;3884;48.616;12.872;2023-07-16T06:29:53;5.30;;;3.87;;
7683;SDS011;3884;48.616;12.872;2023-07-16T06:32:19;7.33;;;3.40;;
7683;SDS011;3884;48.616;12.872;2023-07-16T06:34:46;4.20;;;3.80;;
7683;SDS011;3884;48.616;12.872;2023-07-16T06:37:14;4.20;;;3.80;;
7683;SDS011;3884;48.616;12.872;2023-07-16T06:39:41;4.17;;;3.83;;
7683;SDS011;3884;48.616;12.872;2023-07-16T06:42:08;4.30;;;3.90;;
7683;SDS011;3884;48.616;12.872;2023-07-16T06:44:35;5.30;;;4.07;;
7683;SDS011;3884;48.616;12.872;2023-07-16T06:47:02;5.37;;;3.67;;
7683;SDS011;3884;48.616;12.872;2023-07-16T06:49:30;4.90;;;3.90;;
7683;SDS011;3884;48.616;12.872;2023-07-16T06:51:57;4.57;;;3.83;;
7683;SDS011;3884;48.616;12.872;2023-07-16T06:54:28;4.00;;;3.70;;
7683;SDS011;3884;48.616;12.872;2023-07-16T06:56:55;6.10;;;3.70;;
7683;SDS011;3884;48.616;12.872;2023-07-16T06:59:22;3.57;;;3.23;;
7683;SDS011;3884;48.616;12.872;2023-07-16T07:01:48;5.20;;;2.90;;
7683;SDS011;3884;48.616;12.872;2023-07-16T07:04:16;3.57;;;3.27;;
7683;SDS011;3884;48.616;12.872;2023-07-16T07:06:42;3.70;;;3.30;;
7683;SDS011;3884;48.616;12.872;2023-07-16T07:09:09;3.67;;;3.37;;
7683;SDS011;3884;48.616;12.872;2023-07-16T07:11:37;4.20;;;3.10;;
7683;SDS011;3884;48.616;12.872;2023-07-16T07:14:04;3.07;;;2.73;;
7683;SDS011;3884;48.616;12.872;2023-07-16T07:16:31;3.97;;;3.30;;
7683;SDS011;3884;48.616;12.872;2023-07-16T07:18:58;3.17;;;2.90;;
7683;SDS011;3884;48.616;12.872;2023-07-16T07:21:29;3.27;;;2.70;;
7683;SDS011;3884;48.616;12.872;2023-07-16T07:23:56;3.00;;;2.50;;
7683;SDS011;3884;48.616;12.872;2023-07-16T07:26:23;3.57;;;3.00;;
7683;SDS011;3884;48.616;12.872;2023-07-16T07:28:51;3.17;;;2.80;;
7683;SDS011;3884;48.616;12.872;2023-07-16T07:31:18;2.83;;;2.50;;
7683;SDS011;3884;48.616;12.872;2023-07-16T07:33:45;3.00;;;2.70;;
7683;SDS011;3884;48.616;12.872;2023-07-16T07:36:12;3.20;;;2.27;;
7683;SDS011;3884;48.616;12.872;2023-07-16T07:38:38;3.13;;;2.40;;
7683;SDS011;3884;48.616;12.872;2023-07-16T07:41:06;2.40;;;2.10;;
7683;SDS011;3884;48.616;12.872;2023-07-16T07:43:32;2.57;;;2.37;;
7683;SDS011;3884;48.616;12.872;2023-07-16T07:46:01;2.30;;;2.10;;
7683;SDS011;3884;48.616;12.872;2023-07-16T07:48:27;2.60;;;1.93;;
7683;SDS011;3884;48.616;12.872;2023-07-16T07:50:54;2.90;;;2.30;;
7683;SDS011;3884;48.616;12.872;2023-07-16T07:53:21;2.40;;;2.20;;
7683;SDS011;3884;48.616;12.872;2023-07-16T07:55:48;3.07;;;2.40;;
7683;SDS011;3884;48.616;12.872;2023-07-16T07:58:15;2.47;;;2.27;;
7683;SDS011;3884;48.616;12.872;2023-07-16T08:00:42;2.80;;;2.17;;
7683;SDS011;3884;48.616;12.872;2023-07-16T08:03:10;2.47;;;2.27;;
7683;SDS011;3884;48.616;12.872;2023-07-16T08:05:37;2.60;;;2.40;;
7683;SDS011;3884;48.616;12.872;2023-07-16T08:08:04;2.57;;;2.20;;
7683;SDS011;3884;48.616;12.872;2023-07-16T08:10:31;3.23;;;2.10;;
7683;SDS011;3884;48.616;12.872;2023-07-16T08:12:57;2.40;;;2.20;;
7683;SDS011;3884;48.616;12.872;2023-07-16T08:15:24;2.50;;;2.30;;
7683;SDS011;3884;48.616;12.872;2023-07-16T08:17:51;2.37;;;2.17;;
7683;SDS011;3884;48.616;12.872;2023-07-16T08:20:20;2.77;;;2.50;;
7683;SDS011;3884;48.616;12.872;2023-07-16T08:22:47;2.60;;;2.40;;
7683;SDS011;3884;48.616;12.872;2023-07-16T08:25:15;3.73;;;2.50;;
7683;SDS011;3884;48.616;12.872;2023-07-16T08:27:42;3.10;;;2.50;;
7683;SDS011;3884;48.616;12.872;2023-07-16T08:30:10;2.80;;;2.50;;
7683;SDS011;3884;48.616;12.872;2023-07-16T08:32:37;3.30;;;2.47;;
7683;SDS011;3884;48.616;12.872;2023-07-16T08:35:05;2.70;;;2.50;;
7683;SDS011;3884;48.616;12.872;2023-07-16T08:37:38;2.67;;;2.47;;
7683;SDS011;3884;48.616;12.872;2023-07-16T08:40:05;2.53;;;2.33;;
7683;SDS011;3884;48.616;12.872;2023-07-16T08:42:35;2.63;;;2.43;;
7683;SDS011;3884;48.616;12.872;2023-07-16T08:45:03;3.17;;;2.50;;
7683;SDS011;3884;48.616;12.872;2023-07-16T08:47:32;2.67;;;2.33;;
7683;SDS011;3884;48.616;12.872;2023-07-16T08:50:00;2.40;;;2.20;;
7683;SDS011;3884;48.616;12.872;2023-07-16T08:52:28;2.10;;;1.90;;
7683;SDS011;3884;48.616;12.872;2023-07-16T08:54:57;3.10;;;1.97;;
7683;SDS011;3884;48.616;12.872;2023-07-16T08:57:24;2.23;;;2.03;;
7683;SDS011;3884;48.616;12.872;2023-07-16T08:59:52;2.17;;;1.97;;
7683;SDS011;3884;48.616;12.872;2023-07-16T09:02:23;2.20;;;2.00;;
7683;SDS011;3884;48.616;12.872;2023-07-16T09:04:50;2.33;;;2.13;;
7683;SDS011;3884;48.616;12.872;2023-07-16T09:07:17;2.53;;;1.80;;
7683;SDS011;3884;48.616;12.872;2023-07-16T09:09:54;3.30;;;1.90;;
7683;SDS011;3884;48.616;12.872;2023-07-16T09:12:24;2.23;;;2.03;;
7683;SDS011;3884;48.616;12.872;2023-07-16T09:14:51;2.00;;;1.80;;
7683;SDS011;3884;48.616;12.872;2023-07-16T09:17:20;2.10;;;1.90;;
7683;SDS011;3884;48.616;12.872;2023-07-16T09:19:48;2.00;;;1.90;;
7683;SDS011;3884;48.616;12.872;2023-07-16T09:22:16;2.10;;;1.90;;
7683;SDS011;3884;48.616;12.872;2023-07-16T09:24:44;1.90;;;1.70;;
7683;SDS011;3884;48.616;12.872;2023-07-16T09:27:12;1.73;;;1.63;;
7683;SDS011;3884;48.616;12.872;2023-07-16T09:29:41;2.50;;;1.97;;
7683;SDS011;3884;48.616;12.872;2023-07-16T09:32:08;2.10;;;1.90;;
7683;SDS011;3884;48.616;12.872;2023-07-16T09:34:34;2.17;;;1.70;;
7683;SDS011;3884;48.616;12.872;2023-07-16T09:37:04;2.00;;;1.73;;
7683;SDS011;3884;48.616;12.872;2023-07-16T09:39:31;2.20;;;1.87;;
7683;SDS011;3884;48.616;12.872;2023-07-16T09:41:59;2.03;;;1.77;;
7683;SDS011;3884;48.616;12.872;2023-07-16T09:44:26;3.67;;;2.00;;
7683;SDS011;3884;48.616;12.872;2023-07-16T09:46:54;2.23;;;2.03;;
7683;SDS011;3884;48.616;12.872;2023-07-16T09:49:21;1.83;;;1.73;;
7683;SDS011;3884;48.616;12.872;2023-07-16T09:51:48;2.20;;;2.00;;
7683;SDS011;3884;48.616;12.872;2023-07-16T09:54:23;4.17;;;2.00;;
7683;SDS011;3884;48.616;12.872;2023-07-16T09:56:53;4.23;;;2.00;;
7683;SDS011;3884;48.616;12.872;2023-07-16T09:59:24;2.23;;;1.97;;
7683;SDS011;3884;48.616;12.872;2023-07-16T10:01:55;2.03;;;1.93;;
7683;SDS011;3884;48.616;12.872;2023-07-16T10:04:23;2.20;;;1.80;;
7683;SDS011;3884;48.616;12.872;2023-07-16T10:06:53;2.03;;;1.83;;
7683;SDS011;3884;48.616;12.872;2023-07-16T10:09:33;1.93;;;1.83;;
7683;SDS011;3884;48.616;12.872;2023-07-16T10:12:08;2.53;;;1.90;;
7683;SDS011;3884;48.616;12.872;2023-07-16T10:14:39;10.77;;;9.67;;
7683;SDS011;3884;48.616;12.872;2023-07-16T10:17:11;7.80;;;7.10;;
7683;SDS011;3884;48.616;12.872;2023-07-16T10:19:46;2.40;;;2.20;;
7683;SDS011;3884;48.616;12.872;2023-07-16T10:22:32;2.53;;;2.33;;
7683;SDS011;3884;48.616;12.872;2023-07-16T10:25:02;1.90;;;1.80;;
7683;SDS011;3884;48.616;12.872;2023-07-16T10:27:30;2.47;;;2.10;;
7683;SDS011;3884;48.616;12.872;2023-07-16T10:29:58;2.03;;;1.83;;
7683;SDS011;3884;48.616;12.872;2023-07-16T10:32:27;2.20;;;2.00;;
7683;SDS011;3884;48.616;12.872;2023-07-16T10:34:55;1.80;;;1.70;;
7683;SDS011;3884;48.616;12.872;2023-07-16T10:37:22;2.63;;;1.90;;
7683;SDS011;3884;48.616;12.872;2023-07-16T10:39:49;2.10;;;1.90;;
7683;SDS011;3884;48.616;12.872;2023-07-16T10:42:17;2.17;;;1.97;;
7683;SDS011;3884;48.616;12.872;2023-07-16T10:44:48;2.67;;;1.87;;
7683;SDS011;3884;48.616;12.872;2023-07-16T10:47:20;2.07;;;1.87;;
7683;SDS011;3884;48.616;12.872;2023-07-16T10:49:53;2.20;;;2.00;;
7683;SDS011;3884;48.616;12.872;2023-07-16T10:52:20;1.70;;;1.60;;
7683;SDS011;3884;48.616;12.872;2023-07-16T10:54:47;1.93;;;1.80;;
7683;SDS011;3884;48.616;12.872;2023-07-16T10:57:15;1.87;;;1.77;;
7683;SDS011;3884;48.616;12.872;2023-07-16T10:59:42;2.20;;;2.00;;
7683;SDS011;3884;48.616;12.872;2023-07-16T11:02:11;2.80;;;2.17;;
7683;SDS011;3884;48.616;12.872;2023-07-16T11:04:38;3.93;;;3.23;;
7683;SDS011;3884;48.616;12.872;2023-07-16T11:07:08;2.50;;;2.00;;
7683;SDS011;3884;48.616;12.872;2023-07-16T11:09:40;2.03;;;1.83;;
7683;SDS011;3884;48.616;12.872;2023-07-16T11:12:09;2.00;;;1.80;;
7683;SDS011;3884;48.616;12.872;2023-07-16T11:14:37;2.40;;;1.73;;
7683;SDS011;3884;48.616;12.872;2023-07-16T11:17:05;2.23;;;2.00;;
7683;SDS011;3884;48.616;12.872;2023-07-16T11:19:33;2.30;;;1.90;;
7683;SDS011;3884;48.616;12.872;2023-07-16T11:22:01;2.87;;;2.10;;
7683;SDS011;3884;48.616;12.872;2023-07-16T11:24:37;2.00;;;1.90;;
7683;SDS011;3884;48.616;12.872;2023-07-16T11:27:06;2.00;;;1.80;;
7683;SDS011;3884;48.616;12.872;2023-07-16T11:29:38;2.10;;;1.90;;
7683;SDS011;3884;48.616;12.872;2023-07-16T11:32:07;1.70;;;1.60;;
7683;SDS011;3884;48.616;12.872;2023-07-16T11:34:36;2.60;;;1.70;;
7683;SDS011;3884;48.616;12.872;2023-07-16T11:37:07;2.03;;;1.83;;
7683;SDS011;3884;48.616;12.872;2023-07-16T11:39:37;1.93;;;1.70;;
7683;SDS011;3884;48.616;12.872;2023-07-16T11:42:04;2.43;;;1.83;;
7683;SDS011;3884;48.616;12.872;2023-07-16T11:44:32;1.83;;;1.70;;
7683;SDS011;3884;48.616;12.872;2023-07-16T11:47:00;1.93;;;1.70;;
7683;SDS011;3884;48.616;12.872;2023-07-16T11:49:27;2.10;;;1.90;;
7683;SDS011;3884;48.616;12.872;2023-07-16T11:51:54;2.10;;;1.90;;
7683;SDS011;3884;48.616;12.872;2023-07-16T11:54:20;2.00;;;1.80;;
7683;SDS011;3884;48.616;12.872;2023-07-16T11:56:49;2.20;;;2.00;;
7683;SDS011;3884;48.616;12.872;2023-07-16T11:59:16;2.53;;;2.10;;
7683;SDS011;3884;48.616;12.872;2023-07-16T12:01:45;2.07;;;1.87;;
7683;SDS011;3884;48.616;12.872;2023-07-16T12:04:13;2.40;;;2.00;;
7683;SDS011;3884;48.616;12.872;2023-07-16T12:06:40;1.83;;;1.53;;
7683;SDS011;3884;48.616;12.872;2023-07-16T12:09:07;2.20;;;2.00;;
7683;SDS011;3884;48.616;12.872;2023-07-16T12:11:34;2.10;;;1.90;;
7683;SDS011;3884;48.616;12.872;2023-07-16T12:14:04;2.00;;;1.80;;
7683;SDS011;3884;48.616;12.872;2023-07-16T12:16:31;2.17;;;1.97;;
7683;SDS011;3884;48.616;12.872;2023-07-16T12:18:58;2.10;;;1.90;;
7683;SDS011;3884;48.616;12.872;2023-07-16T12:21:25;2.97;;;2.00;;
7683;SDS011;3884;48.616;12.872;2023-07-16T12:23:52;2.50;;;1.90;;
7683;SDS011;3884;48.616;12.872;2023-07-16T12:26:19;2.63;;;1.70;;
7683;SDS011;3884;48.616;12.872;2023-07-16T12:28:46;2.20;;;2.00;;
7683;SDS011;3884;48.616;12.872;2023-07-16T12:31:14;2.83;;;2.00;;
7683;SDS011;3884;48.616;12.872;2023-07-16T12:33:42;2.07;;;1.87;;
7683;SDS011;3884;48.616;12.872;2023-07-16T12:36:09;1.73;;;1.63;;
7683;SDS011;3884;48.616;12.872;2023-07-16T12:38:36;2.00;;;1.80;;
7683;SDS011;3884;48.616;12.872;2023-07-16T12:41:03;2.13;;;1.70;;
7683;SDS011;3884;48.616;12.872;2023-07-16T12:43:30;2.00;;;1.77;;
7683;SDS011;3884;48.616;12.872;2023-07-16T12:45:59;1.80;;;1.70;;
7683;SDS011;3884;48.616;12.872;2023-07-16T12:48:29;1.90;;;1.80;;
7683;SDS011;3884;48.616;12.872;2023-07-16T12:50:56;1.93;;;1.83;;
7683;SDS011;3884;48.616;12.872;2023-07-16T12:53:23;2.20;;;2.00;;
7683;SDS011;3884;48.616;12.872;2023-07-16T12:55:50;1.90;;;1.70;;
7683;SDS011;3884;48.616;12.872;2023-07-16T12:58:19;2.27;;;2.00;;
7683;SDS011;3884;48.616;12.872;2023-07-16T13:00:46;2.30;;;2.10;;
7683;SDS011;3884;48.616;12.872;2023-07-16T13:03:13;2.43;;;1.80;;
7683;SDS011;3884;48.616;12.872;2023-07-16T13:05:43;2.03;;;1.73;;
7683;SDS011;3884;48.616;12.872;2023-07-16T13:08:10;2.30;;;2.03;;
7683;SDS011;3884;48.616;12.872;2023-07-16T13:10:37;2.10;;;1.90;;
7683;SDS011;3884;48.616;12.872;2023-07-16T13:13:05;2.03;;;1.73;;
7683;SDS011;3884;48.616;12.872;2023-07-16T13:15:33;2.77;;;1.90;;
7683;SDS011;3884;48.616;12.872;2023-07-16T13:18:00;2.50;;;1.83;;
7683;SDS011;3884;48.616;12.872;2023-07-16T13:20:26;2.00;;;1.80;;
7683;SDS011;3884;48.616;12.872;2023-07-16T13:22:56;1.80;;;1.70;;
7683;SDS011;3884;48.616;12.872;2023-07-16T13:25:23;2.13;;;1.77;;
7683;SDS011;3884;48.616;12.872;2023-07-16T13:27:50;2.33;;;2.13;;
7683;SDS011;3884;48.616;12.872;2023-07-16T13:30:18;1.80;;;1.70;;
7683;SDS011;3884;48.616;12.872;2023-07-16T13:32:45;2.70;;;2.00;;
7683;SDS011;3884;48.616;12.872;2023-07-16T13:35:13;2.00;;;1.80;;
7683;SDS011;3884;48.616;12.872;2023-07-16T13:37:41;2.30;;;2.10;;
7683;SDS011;3884;48.616;12.872;2023-07-16T13:40:09;2.27;;;2.07;;
7683;SDS011;3884;48.616;12.872;2023-07-16T13:42:37;2.20;;;2.00;;
7683;SDS011;3884;48.616;12.872;2023-07-16T13:45:04;1.87;;;1.77;;
7683;SDS011;3884;48.616;12.872;2023-07-16T13:47:31;2.40;;;1.90;;
7683;SDS011;3884;48.616;12.872;2023-07-16T13:49:58;2.00;;;1.90;;
7683;SDS011;3884;48.616;12.872;2023-07-16T13:52:25;2.03;;;1.93;;
7683;SDS011;3884;48.616;12.872;2023-07-16T13:54:52;2.10;;;1.90;;
7683;SDS011;3884;48.616;12.872;2023-07-16T13:57:20;2.37;;;2.10;;
7683;SDS011;3884;48.616;12.872;2023-07-16T13:59:47;1.93;;;1.80;;
7683;SDS011;3884;48.616;12.872;2023-07-16T14:02:14;2.03;;;1.67;;
7683;SDS011;3884;48.616;12.872;2023-07-16T14:04:41;2.93;;;1.80;;
7683;SDS011;3884;48.616;12.872;2023-07-16T14:07:08;1.90;;;1.80;;
7683;SDS011;3884;48.616;12.872;2023-07-16T14:09:35;2.23;;;1.90;;
7683;SDS011;3884;48.616;12.872;2023-07-16T14:12:02;2.23;;;1.90;;
7683;SDS011;3884;48.616;12.872;2023-07-16T14:14:31;2.03;;;1.83;;
7683;SDS011;3884;48.616;12.872;2023-07-16T14:16:58;2.17;;;1.97;;
7683;SDS011;3884;48.616;12.872;2023-07-16T14:19:24;2.73;;;2.20;;
7683;SDS011;3884;48.616;12.872;2023-07-16T14:21:51;3.50;;;2.13;;
7683;SDS011;3884;48.616;12.872;2023-07-16T14:24:18;2.30;;;2.10;;
7683;SDS011;3884;48.616;12.872;2023-07-16T14:26:45;2.00;;;1.90;;
7683;SDS011;3884;48.616;12.872;2023-07-16T14:29:12;2.27;;;2.07;;
7683;SDS011;3884;48.616;12.872;2023-07-16T14:31:40;2.80;;;2.20;;
7683;SDS011;3884;48.616;12.872;2023-07-16T14:34:07;2.10;;;1.93;;
7683;SDS011;3884;48.616;12.872;2023-07-16T14:36:36;2.40;;;2.20;;
7683;SDS011;3884;48.616;12.872;2023-07-16T14:39:02;2.10;;;1.90;;
7683;SDS011;3884;48.616;12.872;2023-07-16T14:41:29;3.97;;;2.50;;
7683;SDS011;3884;48.616;12.872;2023-07-16T14:43:56;2.37;;;2.13;;
7683;SDS011;3884;48.616;12.872;2023-07-16T14:46:23;2.40;;;2.20;;
7683;SDS011;3884;48.616;12.872;2023-07-16T14:48:51;2.33;;;2.13;;
7683;SDS011;3884;48.616;12.872;2023-07-16T14:51:21;2.20;;;2.00;;
7683;SDS011;3884;48.616;12.872;2023-07-16T14:53:48;2.00;;;1.90;;
7683;SDS011;3884;48.616;12.872;2023-07-16T14:56:14;3.43;;;2.23;;
7683;SDS011;3884;48.616;12.872;2023-07-16T14:58:41;2.90;;;2.30;;
7683;SDS011;3884;48.616;12.872;2023-07-16T15:01:08;3.13;;;1.97;;
7683;SDS011;3884;48.616;12.872;2023-07-16T15:03:35;2.20;;;2.00;;
7683;SDS011;3884;48.616;12.872;2023-07-16T15:06:04;3.87;;;2.20;;